Time;durP1;ratioP1;P1;durP2;ratioP2;P2;SDS_P1;SDS_P2;PMS_P1;PMS_P2;Temp;Humidity;BMP_temperature;BMP_pressure;BME280_temperature;BME280_humidity;BME280_pressure;Samples;Min_cycle;Max_cycle;Signal;HPM_P1;HPM_P2
2023/03/07 00:01:02;;;;;;;3.00;2.08;;;2.00;99.90;;;;;;5040355;28;20435;-72
2023/03/07 00:03:28;;;;;;;3.40;2.93;;;2.00;99.90;;;;;;5047529;28;20543;-72
2023/03/07 00:06:25;;;;;;;2.30;2.10;;;2.10;99.90;;;;;;5039804;28;20471;-71
2023/03/07 00:08:54;;;;;;;2.90;2.70;;;2.10;99.90;;;;;;5040255;28;20425;-71
2023/03/07 00:11:24;;;;;;;2.20;2.00;;;2.10;99.90;;;;;;5043583;28;20436;-71
2023/03/07 00:13:52;;;;;;;2.50;2.30;;;2.10;99.90;;;;;;5039311;28;20456;-72
2023/03/07 00:16:21;;;;;;;3.13;1.85;;;2.10;99.90;;;;;;5043240;28;20429;-72
2023/03/07 00:18:48;;;;;;;5.80;2.70;;;2.10;99.90;;;;;;5042371;28;20789;-72
2023/03/07 00:21:18;;;;;;;3.83;2.45;;;2.10;99.90;;;;;;5041729;28;20427;-72
2023/03/07 00:23:46;;;;;;;1.83;1.70;;;2.10;99.90;;;;;;5045410;28;20436;-72
2023/03/07 00:26:14;;;;;;;3.08;2.10;;;2.10;99.90;;;;;;5037563;28;20425;-72
2023/03/07 00:28:41;;;;;;;5.05;3.03;;;2.10;99.90;;;;;;5038022;28;20889;-72
2023/03/07 00:31:10;;;;;;;4.30;1.90;;;2.10;99.90;;;;;;5039083;28;20421;-72
2023/03/07 00:33:38;;;;;;;2.10;1.77;;;2.10;99.90;;;;;;5032347;28;20428;-72
2023/03/07 00:36:16;;;;;;;2.80;2.00;;;2.10;99.90;;;;;;5038875;28;20421;-72
2023/03/07 00:38:43;;;;;;;4.75;2.00;;;2.10;99.90;;;;;;5032069;28;20521;-72
2023/03/07 00:41:32;;;;;;;4.40;2.45;;;2.00;99.90;;;;;;5031220;28;20979;-72
2023/03/07 00:44:06;;;;;;;5.72;2.90;;;2.00;99.90;;;;;;5044951;28;20436;-73
2023/03/07 00:46:36;;;;;;;2.47;2.17;;;2.00;99.90;;;;;;5047972;28;20780;-72
2023/03/07 00:49:03;;;;;;;2.58;2.38;;;2.00;99.90;;;;;;5037264;28;20432;-72
2023/03/07 00:51:29;;;;;;;3.28;2.63;;;2.00;99.90;;;;;;5044217;28;20425;-72
2023/03/07 00:53:56;;;;;;;2.67;2.47;;;2.00;99.90;;;;;;5036640;28;20426;-73
2023/03/07 00:56:24;;;;;;;3.38;2.05;;;2.00;99.90;;;;;;5042411;28;20907;-72
2023/03/07 00:58:51;;;;;;;8.57;2.53;;;2.10;99.90;;;;;;5046970;28;20523;-73
2023/03/07 01:01:21;;;;;;;2.78;2.17;;;2.10;99.90;;;;;;5035127;28;20520;-72
2023/03/07 01:03:57;;;;;;;2.70;2.50;;;2.10;99.90;;;;;;5049066;28;20421;-73
2023/03/07 01:06:31;;;;;;;5.18;2.35;;;2.10;99.90;;;;;;5045907;28;20433;-73
2023/03/07 01:09:00;;;;;;;2.35;1.75;;;2.10;99.90;;;;;;5041944;28;20432;-72
2023/03/07 01:11:30;;;;;;;2.78;2.58;;;2.10;99.90;;;;;;5045992;28;21111;-73
2023/03/07 01:13:59;;;;;;;2.90;1.77;;;2.10;99.90;;;;;;5042182;28;20925;-73
2023/03/07 01:16:34;;;;;;;1.97;1.63;;;2.10;99.90;;;;;;5038733;28;20804;-73
2023/03/07 01:19:05;;;;;;;7.10;2.97;;;2.10;99.90;;;;;;5045725;28;20920;-72
2023/03/07 01:21:37;;;;;;;3.30;1.85;;;2.10;99.90;;;;;;5038934;28;20471;-72
2023/03/07 01:24:06;;;;;;;3.67;2.15;;;2.10;99.90;;;;;;5038285;28;20825;-72
2023/03/07 01:26:33;;;;;;;3.08;1.95;;;2.10;99.90;;;;;;5036654;28;20427;-73
2023/03/07 01:29:02;;;;;;;2.30;2.10;;;2.10;99.90;;;;;;5037926;28;20512;-73
2023/03/07 01:31:31;;;;;;;3.38;2.38;;;2.10;99.90;;;;;;5048530;28;20870;-72
2023/03/07 01:34:00;;;;;;;2.28;2.13;;;2.10;99.90;;;;;;5040073;28;20435;-73
2023/03/07 01:36:30;;;;;;;2.50;1.98;;;2.10;99.90;;;;;;5047923;28;20417;-73
2023/03/07 01:39:12;;;;;;;3.35;2.70;;;2.10;99.90;;;;;;5051069;28;20425;-73
2023/03/07 01:41:43;;;;;;;2.90;2.45;;;2.10;99.90;;;;;;5044604;28;20468;-73
2023/03/07 01:44:21;;;;;;;2.20;2.10;;;2.20;99.90;;;;;;5042459;28;20439;-73
2023/03/07 01:46:55;;;;;;;1.73;1.55;;;2.20;99.90;;;;;;5050784;28;20425;-73
2023/03/07 01:49:40;;;;;;;6.35;2.15;;;2.20;99.90;;;;;;5049334;28;21125;-73
2023/03/07 01:52:30;;;;;;;3.60;1.75;;;2.20;99.90;;;;;;5043093;28;20439;-73
2023/03/07 01:55:13;;;;;;;3.35;2.45;;;2.30;99.90;;;;;;5042879;28;20948;-72
2023/03/07 01:57:42;;;;;;;3.33;2.08;;;2.30;99.90;;;;;;5047852;28;20485;-72
2023/03/07 02:00:12;;;;;;;2.95;2.25;;;2.30;99.90;;;;;;5042296;28;20795;-72
2023/03/07 02:02:46;;;;;;;1.95;1.85;;;2.30;99.90;;;;;;5049511;28;20433;-72
2023/03/07 02:05:24;;;;;;;2.08;1.48;;;2.40;99.90;;;;;;5046741;28;20461;-72
2023/03/07 02:38:49;;;;;;;4.10;1.55;;;2.30;99.90;;;;;;5037884;28;20386;-72
2023/03/07 02:41:19;;;;;;;1.33;1.27;;;2.40;99.90;;;;;;5039695;28;21130;-72
2023/03/07 02:43:46;;;;;;;3.90;1.33;;;2.40;99.90;;;;;;5042665;28;20435;-72
2023/03/07 02:46:13;;;;;;;5.15;2.05;;;2.40;99.90;;;;;;5044211;28;20774;-72
2023/03/07 02:48:39;;;;;;;2.50;1.70;;;2.40;99.90;;;;;;5041021;28;20440;-72
2023/03/07 02:51:06;;;;;;;1.30;1.20;;;2.30;99.90;;;;;;5040040;28;20435;-72
2023/03/07 02:53:33;;;;;;;1.77;1.58;;;2.30;99.90;;;;;;5038320;28;20427;-72
2023/03/07 02:56:00;;;;;;;2.38;2.17;;;2.30;99.90;;;;;;5042738;28;20467;-72
2023/03/07 02:58:26;;;;;;;1.73;1.63;;;2.40;99.90;;;;;;5044305;28;20898;-72
2023/03/07 03:00:53;;;;;;;1.42;1.35;;;2.30;99.90;;;;;;5041772;28;20784;-72
2023/03/07 03:03:20;;;;;;;1.52;1.50;;;2.30;99.90;;;;;;5044862;28;20425;-72
2023/03/07 03:05:46;;;;;;;2.50;1.25;;;2.40;99.90;;;;;;5047909;28;20487;-72
2023/03/07 03:08:13;;;;;;;6.47;1.88;;;2.40;99.90;;;;;;5042155;28;20425;-72
2023/03/07 03:10:40;;;;;;;2.10;1.15;;;2.40;99.90;;;;;;5047823;28;20429;-74
2023/03/07 03:13:07;;;;;;;1.45;1.35;;;2.40;99.90;;;;;;5048279;28;20512;-72
2023/03/07 03:15:34;;;;;;;1.58;1.48;;;2.40;99.90;;;;;;5040934;28;20429;-72
2023/03/07 03:18:01;;;;;;;1.80;1.70;;;2.40;99.90;;;;;;5047359;28;20905;-72
2023/03/07 03:20:27;;;;;;;1.93;1.17;;;2.40;99.90;;;;;;5048761;28;20433;-72
2023/03/07 03:22:54;;;;;;;1.73;1.65;;;2.40;99.90;;;;;;5046991;28;20800;-72
2023/03/07 03:25:23;;;;;;;1.70;1.60;;;2.40;99.90;;;;;;5041981;28;20429;-72
2023/03/07 03:27:50;;;;;;;2.20;1.20;;;2.40;99.90;;;;;;5048053;28;20425;-72
2023/03/07 03:30:16;;;;;;;1.30;1.20;;;2.40;99.90;;;;;;5038720;28;20817;-72
2023/03/07 03:32:43;;;;;;;3.33;1.90;;;2.40;99.90;;;;;;5041109;28;20423;-72
2023/03/07 03:35:10;;;;;;;0.90;0.90;;;2.40;99.90;;;;;;5047165;28;20425;-72
2023/03/07 03:37:37;;;;;;;1.55;1.45;;;2.40;99.90;;;;;;5041386;28;20433;-72
2023/03/07 03:40:13;;;;;;;1.50;1.35;;;2.40;99.90;;;;;;5039521;28;20788;-72
2023/03/07 03:42:41;;;;;;;1.38;1.27;;;2.40;99.90;;;;;;5044163;28;20469;-72
2023/03/07 03:45:09;;;;;;;2.63;1.70;;;2.40;99.90;;;;;;5048760;28;20438;-72
2023/03/07 03:47:36;;;;;;;1.47;1.40;;;2.40;99.90;;;;;;5038538;28;20471;-72
2023/03/07 03:50:04;;;;;;;2.80;1.38;;;2.50;99.90;;;;;;5048818;28;20440;-72
2023/03/07 03:52:30;;;;;;;0.98;0.98;;;2.50;99.90;;;;;;5045116;28;20431;-72
2023/03/07 03:54:59;;;;;;;3.90;2.45;;;2.50;99.90;;;;;;5041495;28;20425;-72
2023/03/07 03:57:29;;;;;;;3.00;1.08;;;2.50;99.90;;;;;;5038918;28;20439;-72
2023/03/07 03:59:58;;;;;;;2.63;1.70;;;2.50;99.90;;;;;;5044358;28;20437;-72
2023/03/07 04:02:25;;;;;;;1.30;1.15;;;2.50;99.90;;;;;;5036831;28;20496;-72
2023/03/07 04:04:54;;;;;;;4.57;1.95;;;2.40;99.90;;;;;;5044511;28;20425;-72
2023/03/07 04:07:23;;;;;;;1.97;1.50;;;2.40;99.90;;;;;;5044842;28;20425;-72
2023/03/07 04:09:53;;;;;;;3.67;1.45;;;2.40;99.90;;;;;;5043556;28;20800;-72
2023/03/07 04:12:20;;;;;;;1.02;1.00;;;2.40;99.90;;;;;;5049013;28;20440;-72
2023/03/07 04:14:47;;;;;;;1.60;1.50;;;2.40;99.90;;;;;;5040983;28;20944;-72
2023/03/07 04:17:13;;;;;;;2.30;1.60;;;2.40;99.90;;;;;;5040968;28;20441;-72
2023/03/07 04:19:40;;;;;;;2.50;2.10;;;2.40;99.90;;;;;;5045063;28;20429;-71
2023/03/07 04:22:07;;;;;;;3.30;1.67;;;2.40;99.90;;;;;;5047811;28;20835;-71
2023/03/07 04:24:36;;;;;;;1.75;1.50;;;2.30;99.90;;;;;;5042763;28;20429;-71
2023/03/07 04:27:06;;;;;;;1.53;1.33;;;2.30;99.90;;;;;;5041354;28;21083;-71
2023/03/07 04:29:33;;;;;;;1.27;1.20;;;2.30;99.90;;;;;;5042126;28;20429;-71
2023/03/07 04:31:59;;;;;;;1.77;1.17;;;2.30;99.90;;;;;;5035078;28;20699;-71
2023/03/07 04:34:26;;;;;;;1.83;1.73;;;2.20;99.90;;;;;;5045196;28;20437;-71
2023/03/07 04:36:53;;;;;;;2.08;1.65;;;2.30;99.90;;;;;;5043212;28;20425;-71
2023/03/07 04:39:20;;;;;;;2.83;1.75;;;2.20;99.90;;;;;;5048322;28;20430;-71
2023/03/07 04:41:46;;;;;;;1.35;1.25;;;2.30;99.90;;;;;;5051422;28;20425;-71
2023/03/07 04:44:15;;;;;;;2.33;1.25;;;2.30;99.90;;;;;;5051704;28;20436;-71
2023/03/07 04:46:42;;;;;;;4.68;2.28;;;2.30;99.90;;;;;;5047390;28;20425;-71
2023/03/07 04:49:08;;;;;;;2.85;2.22;;;2.20;99.90;;;;;;5050547;28;20432;-71
2023/03/07 04:51:35;;;;;;;2.40;2.20;;;2.30;99.90;;;;;;5051750;28;20924;-71
2023/03/07 04:54:02;;;;;;;3.57;2.13;;;2.30;99.90;;;;;;5032161;28;21144;-71
2023/03/07 04:56:28;;;;;;;5.30;1.27;;;2.30;99.90;;;;;;5043446;28;20427;-71
2023/03/07 04:58:55;;;;;;;3.53;2.50;;;2.30;99.90;;;;;;5046646;28;20451;-71
2023/03/07 05:01:22;;;;;;;1.90;1.30;;;2.30;99.90;;;;;;5048420;28;20436;-70
2023/03/07 05:03:49;;;;;;;1.90;1.80;;;2.30;99.90;;;;;;5049338;28;20433;-71
2023/03/07 05:06:16;;;;;;;1.53;1.40;;;2.30;99.90;;;;;;5047943;28;20444;-71
2023/03/07 05:08:43;;;;;;;1.40;1.30;;;2.30;99.90;;;;;;5038765;28;20430;-71
2023/03/07 05:11:12;;;;;;;3.63;1.40;;;2.30;99.90;;;;;;5047348;28;20459;-70
2023/03/07 05:13:39;;;;;;;1.83;1.63;;;2.40;99.90;;;;;;5043831;28;20453;-71
2023/03/07 05:16:09;;;;;;;1.58;1.50;;;2.30;99.90;;;;;;5050559;28;20436;-71
2023/03/07 05:18:38;;;;;;;1.88;1.70;;;2.30;99.90;;;;;;5047312;28;20435;-71
2023/03/07 05:21:05;;;;;;;2.22;1.80;;;2.30;99.90;;;;;;5042391;28;20504;-71
2023/03/07 05:23:35;;;;;;;2.67;1.75;;;2.40;99.90;;;;;;5051895;28;20456;-71
2023/03/07 05:26:08;;;;;;;2.50;2.17;;;2.40;99.90;;;;;;5047958;28;20433;-71
2023/03/07 05:28:34;;;;;;;4.43;1.63;;;2.40;99.90;;;;;;5044839;28;20453;-71
2023/03/07 05:31:01;;;;;;;2.05;1.95;;;2.40;99.90;;;;;;5046089;28;20425;-71
2023/03/07 05:33:30;;;;;;;2.20;1.67;;;2.40;99.90;;;;;;5047886;28;20425;-71
2023/03/07 05:36:01;;;;;;;1.70;1.60;;;2.50;99.90;;;;;;5041022;28;20432;-71
2023/03/07 05:38:27;;;;;;;1.70;1.45;;;2.40;99.90;;;;;;5042244;28;21057;-71
2023/03/07 05:40:54;;;;;;;2.35;2.10;;;2.40;99.90;;;;;;5043955;28;20441;-71
2023/03/07 05:43:21;;;;;;;3.20;1.58;;;2.40;99.90;;;;;;5044157;28;20433;-71
2023/03/07 05:45:48;;;;;;;1.95;1.05;;;2.40;99.90;;;;;;5042876;28;20433;-71
2023/03/07 05:48:17;;;;;;;1.80;1.70;;;2.40;99.90;;;;;;5039397;28;20435;-71
2023/03/07 05:50:44;;;;;;;3.70;2.33;;;2.40;99.90;;;;;;5044288;28;20432;-71
2023/03/07 05:53:11;;;;;;;1.90;1.60;;;2.40;99.90;;;;;;5042623;28;20426;-71
2023/03/07 05:55:37;;;;;;;1.17;1.17;;;2.40;99.90;;;;;;5036269;28;20440;-71
2023/03/07 05:58:04;;;;;;;3.00;1.73;;;2.40;99.90;;;;;;5042346;28;20456;-71
2023/03/07 06:00:31;;;;;;;1.80;1.70;;;2.30;99.90;;;;;;5034291;28;20907;-71
2023/03/07 06:03:01;;;;;;;2.30;2.00;;;2.30;99.90;;;;;;5037361;28;20959;-71
2023/03/07 06:05:31;;;;;;;1.45;1.35;;;2.40;99.90;;;;;;5044180;28;20491;-71
2023/03/07 06:07:58;;;;;;;2.33;2.05;;;2.30;99.90;;;;;;5045724;28;20432;-71
2023/03/07 06:10:25;;;;;;;2.27;1.80;;;2.40;99.90;;;;;;5038545;28;20433;-70
2023/03/07 06:12:55;;;;;;;3.58;1.92;;;2.40;99.90;;;;;;5033881;28;20433;-70
2023/03/07 06:15:22;;;;;;;1.63;1.60;;;2.40;99.90;;;;;;5030144;28;20526;-70
2023/03/07 06:17:51;;;;;;;2.20;1.55;;;2.40;99.90;;;;;;5035094;28;20512;-70
2023/03/07 06:20:21;;;;;;;2.75;2.17;;;2.40;99.90;;;;;;5040397;28;20433;-70
2023/03/07 06:22:48;;;;;;;2.30;1.70;;;2.40;99.90;;;;;;5036419;28;20486;-70
2023/03/07 06:25:15;;;;;;;1.83;1.73;;;2.40;99.90;;;;;;5045514;28;20425;-70
2023/03/07 06:27:42;;;;;;;2.58;2.03;;;2.50;99.90;;;;;;5038310;28;20421;-70
2023/03/07 06:30:11;;;;;;;4.60;1.55;;;2.50;99.90;;;;;;5039918;28;20421;-70
2023/03/07 06:32:37;;;;;;;1.52;1.42;;;2.50;99.90;;;;;;5041253;28;20429;-70
2023/03/07 06:35:05;;;;;;;2.20;1.63;;;2.50;99.90;;;;;;5033463;28;20539;-70
2023/03/07 06:37:32;;;;;;;3.35;1.77;;;2.50;99.90;;;;;;5041362;28;20431;-70
2023/03/07 06:39:58;;;;;;;1.63;1.45;;;2.60;99.90;;;;;;5043075;28;20425;-70
2023/03/07 06:42:25;;;;;;;1.17;1.17;;;2.60;99.90;;;;;;5040126;28;20460;-70
2023/03/07 06:44:51;;;;;;;2.55;2.10;;;2.70;99.90;;;;;;5042370;28;20788;-71
2023/03/07 06:47:18;;;;;;;3.15;1.70;;;2.70;99.90;;;;;;5040522;28;20429;-70
2023/03/07 06:49:45;;;;;;;1.95;1.85;;;2.80;99.90;;;;;;5039858;28;20417;-70
2023/03/07 06:52:12;;;;;;;2.28;1.73;;;2.80;99.90;;;;;;5041695;28;21018;-70
2023/03/07 06:54:38;;;;;;;1.70;1.60;;;2.90;99.90;;;;;;5039680;28;20441;-70
2023/03/07 06:57:10;;;;;;;2.63;1.80;;;2.90;99.90;;;;;;5042081;28;20993;-70
2023/03/07 06:59:37;;;;;;;1.40;1.23;;;3.00;99.90;;;;;;5035133;28;20429;-70
2023/03/07 07:02:05;;;;;;;1.30;1.03;;;3.10;99.90;;;;;;5040463;28;20484;-70
2023/03/07 07:04:35;;;;;;;5.15;2.08;;;3.20;99.90;;;;;;5041649;28;20471;-70
2023/03/07 07:07:02;;;;;;;1.60;1.48;;;3.20;99.90;;;;;;5038982;28;20433;-70
2023/03/07 07:09:29;;;;;;;2.47;1.43;;;3.20;99.90;;;;;;5042026;28;20435;-70
2023/03/07 07:11:55;;;;;;;2.63;1.33;;;3.20;99.90;;;;;;5037342;28;20426;-70
2023/03/07 07:14:25;;;;;;;3.35;1.45;;;3.30;99.90;;;;;;5036516;28;20495;-70
2023/03/07 07:16:52;;;;;;;6.10;2.20;;;3.40;99.90;;;;;;5033494;28;20429;-70
2023/03/07 07:19:18;;;;;;;2.85;1.48;;;3.50;99.90;;;;;;5037084;28;20437;-70
2023/03/07 07:21:45;;;;;;;2.10;1.80;;;3.50;99.90;;;;;;5046097;28;20444;-70
2023/03/07 07:24:12;;;;;;;2.42;1.60;;;3.60;99.90;;;;;;5034484;28;20434;-70
2023/03/07 07:26:39;;;;;;;1.47;1.37;;;3.70;99.90;;;;;;5041793;28;20510;-70
2023/03/07 07:29:06;;;;;;;1.83;1.73;;;3.70;99.90;;;;;;5038351;28;20429;-70
2023/03/07 07:31:35;;;;;;;2.40;1.58;;;3.80;99.90;;;;;;5035854;28;20423;-70
2023/03/07 07:34:02;;;;;;;1.70;0.93;;;3.80;99.90;;;;;;5040205;28;20426;-69
2023/03/07 07:36:31;;;;;;;1.10;1.10;;;3.90;99.90;;;;;;5040959;28;20516;-70
2023/03/07 07:38:58;;;;;;;1.77;0.85;;;4.00;99.90;;;;;;5039999;28;20427;-70
2023/03/07 07:41:25;;;;;;;1.50;0.90;;;4.00;99.90;;;;;;5036883;28;20460;-69
2023/03/07 07:43:54;;;;;;;5.13;0.88;;;4.10;99.90;;;;;;5034514;28;20430;-70
2023/03/07 07:46:21;;;;;;;1.55;1.55;;;4.20;99.90;;;;;;5038416;28;20429;-69
2023/03/07 07:48:48;;;;;;;2.10;0.57;;;4.20;99.90;;;;;;5042810;28;20971;-69
2023/03/07 07:51:15;;;;;;;2.15;1.25;;;4.40;99.90;;;;;;5042626;28;20796;-69
2023/03/07 07:53:42;;;;;;;0.68;0.68;;;4.40;99.90;;;;;;5045632;28;20460;-69
2023/03/07 07:56:09;;;;;;;0.60;0.60;;;4.50;99.90;;;;;;5040977;28;20429;-69
2023/03/07 07:58:35;;;;;;;1.40;1.40;;;4.60;99.90;;;;;;5041301;28;20429;-69
2023/03/07 08:01:16;;;;;;;2.90;1.35;;;4.70;99.90;;;;;;5033506;28;20443;-69
2023/03/07 08:03:43;;;;;;;2.33;1.08;;;5.10;99.90;;;;;;5032929;28;20435;-69
2023/03/07 08:06:10;;;;;;;1.70;1.20;;;5.60;99.90;;;;;;5039953;28;20443;-69
2023/03/07 08:08:37;;;;;;;2.10;1.52;;;5.90;99.90;;;;;;5034624;28;20426;-69
2023/03/07 08:11:05;;;;;;;0.93;0.93;;;6.10;99.90;;;;;;5040936;28;21389;-69
2023/03/07 08:13:34;;;;;;;1.17;1.07;;;6.40;99.90;;;;;;5048188;28;20429;-69
2023/03/07 08:16:15;;;;;;;3.33;1.33;;;6.80;99.90;;;;;;5046569;28;20891;-69
2023/03/07 08:18:48;;;;;;;1.00;0.95;;;6.70;99.90;;;;;;5046558;28;20435;-69
2023/03/07 08:21:15;;;;;;;3.40;1.20;;;6.60;99.90;;;;;;5045201;28;20447;-69
2023/03/07 08:23:41;;;;;;;2.65;1.35;;;6.70;99.90;;;;;;5044599;28;20437;-69
2023/03/07 08:26:09;;;;;;;1.50;1.30;;;6.70;99.90;;;;;;5029163;28;20433;-69
2023/03/07 08:28:36;;;;;;;1.38;1.27;;;7.10;99.90;;;;;;5047870;28;20508;-68
2023/03/07 08:31:13;;;;;;;1.60;0.95;;;7.00;99.90;;;;;;5040423;28;20427;-68
2023/03/07 08:33:40;;;;;;;1.80;1.70;;;7.10;99.90;;;;;;5040437;28;20454;-68
2023/03/07 08:36:08;;;;;;;1.08;1.08;;;7.10;99.90;;;;;;5043730;28;20443;-68
2023/03/07 08:38:34;;;;;;;1.10;1.10;;;7.10;99.90;;;;;;5041072;28;20436;-68
2023/03/07 08:41:03;;;;;;;1.00;1.00;;;6.80;99.90;;;;;;5046394;28;20429;-68
2023/03/07 08:43:31;;;;;;;1.05;1.00;;;6.80;99.90;;;;;;5038165;28;20548;-68
2023/03/07 08:45:58;;;;;;;1.58;1.48;;;6.70;99.90;;;;;;5038002;28;20430;-68
2023/03/07 08:48:26;;;;;;;1.10;0.65;;;;;;;;;;5041190;28;20435;-68
2023/03/07 08:50:53;;;;;;;1.27;1.27;;;;;;;;;;5045432;28;20434;-68
2023/03/07 08:53:25;;;;;;;1.30;1.17;;;;;;;;;;5049014;28;20985;-68
2023/03/07 08:55:53;;;;;;;2.50;1.25;;;;;;;;;;5049125;28;20428;-68
2023/03/07 08:58:24;;;;;;;2.08;1.15;;;;;;;;;;5051801;28;20495;-69
2023/03/07 09:00:51;;;;;;;1.33;1.15;;;;;;;;;;5039957;28;20796;-68
2023/03/07 09:03:18;;;;;;;1.20;1.10;;;;;;;;;;5052136;28;20435;-68
2023/03/07 09:05:45;;;;;;;3.17;1.38;;;6.90;99.90;;;;;;5047510;28;20432;-69
2023/03/07 09:08:14;;;;;;;1.42;1.33;;;7.80;99.90;;;;;;5050239;28;20512;-68
2023/03/07 09:10:40;;;;;;;1.25;1.23;;;7.80;99.90;;;;;;5043681;28;20631;-69
2023/03/07 09:13:10;;;;;;;2.25;1.60;;;7.90;99.90;;;;;;5043391;28;20437;-69
2023/03/07 09:15:40;;;;;;;1.23;1.08;;;7.90;99.90;;;;;;5031631;28;20438;-69
2023/03/07 09:18:08;;;;;;;1.55;1.15;;;;;;;;;;5038765;28;20435;-69
2023/03/07 09:20:35;;;;;;;3.40;1.20;;;;;;;;;;5045339;28;20424;-69
2023/03/07 09:23:02;;;;;;;2.42;1.23;;;;;;;;;;5042668;28;20552;-68
2023/03/07 09:25:35;;;;;;;1.70;0.93;;;;;;;;;;5042518;28;20459;-69
2023/03/07 09:28:03;;;;;;;1.90;1.80;;;;;;;;;;5049231;28;20443;-69
2023/03/07 09:30:30;;;;;;;1.75;1.08;;;;;;;;;;5039399;28;20513;-68
2023/03/07 09:32:57;;;;;;;1.17;1.08;;;;;;;;;;5049508;28;20465;-68
2023/03/07 09:35:25;;;;;;;2.60;1.60;;;;;;;;;;5047316;28;20443;-68
2023/03/07 09:37:54;;;;;;;1.15;1.13;;;;;;;;;;5040451;28;20433;-69
2023/03/07 09:40:26;;;;;;;0.95;0.95;;;;;;;;;;5045896;28;20982;-69
2023/03/07 09:43:04;;;;;;;0.90;0.88;;;8.20;99.90;;;;;;5040950;28;20832;-68
2023/03/07 09:45:34;;;;;;;0.63;0.63;;;8.60;99.90;;;;;;5033176;28;20438;-69
2023/03/07 09:48:36;;;;;;;1.00;1.00;;;8.60;99.90;;;;;;5044362;28;20433;-69
2023/03/07 09:51:23;;;;;;;4.10;0.93;;;8.50;99.90;;;;;;5044368;28;20428;-68
2023/03/07 09:54:01;;;;;;;0.98;0.98;;;8.40;99.90;;;;;;5045582;28;20900;-68
2023/03/07 09:56:48;;;;;;;1.10;0.40;;;8.30;99.90;;;;;;5048224;28;20487;-69
2023/03/07 09:59:30;;;;;;;1.30;1.20;;;7.90;99.90;;;;;;5034159;28;20464;-69
2023/03/07 10:02:10;;;;;;;0.70;0.70;;;7.70;99.90;;;;;;5044117;28;20521;-69
2023/03/07 10:05:09;;;;;;;1.35;1.25;;;7.50;99.90;;;;;;5041524;28;20946;-69
2023/03/07 10:07:39;;;;;;;0.70;0.45;;;;;;;;;;5040806;28;20434;-69
2023/03/07 10:10:10;;;;;;;0.70;0.50;;;;;;;;;;5041466;28;20425;-69
2023/03/07 10:12:52;;;;;;;0.85;0.85;;;;;;;;;;5039320;28;20431;-69
2023/03/07 10:15:22;;;;;;;1.70;1.00;;;;;;;;;;5036963;28;20436;-69
2023/03/07 10:18:10;;;;;;;0.95;0.95;;;;;;;;;;5042932;28;20569;-69
2023/03/07 10:21:03;;;;;;;1.90;0.60;;;;;;;;;;5039982;28;20899;-69
2023/03/07 10:23:37;;;;;;;1.30;0.77;;;;;;;;;;5035160;28;20437;-69
2023/03/07 10:26:11;;;;;;;0.35;0.35;;;;;;;;;;5044923;28;20901;-69
2023/03/07 10:28:39;;;;;;;0.50;0.50;;;;;;;;;;5041286;28;20780;-69
2023/03/07 10:31:25;;;;;;;0.80;0.80;;;;;;;;;;5040303;28;20433;-69
2023/03/07 10:33:53;;;;;;;0.80;0.80;;;7.40;99.90;;;;;;5038901;28;20433;-69
2023/03/07 10:36:41;;;;;;;0.77;0.77;;;7.50;99.90;;;;;;5044739;28;20432;-69
2023/03/07 10:39:29;;;;;;;0.50;0.50;;;7.70;99.90;;;;;;5040214;28;20903;-69
2023/03/07 10:41:56;;;;;;;0.75;0.55;;;;;;;;;;5044164;28;20511;-69
2023/03/07 10:44:23;;;;;;;0.90;0.90;;;;;;;;;;5037587;28;20427;-69
2023/03/07 10:46:58;;;;;;;0.40;0.40;;;;;;;;;;5044289;28;20500;-69
2023/03/07 10:49:31;;;;;;;0.55;0.55;;;;;;;;;;5038135;28;20510;-69
2023/03/07 10:52:26;;;;;;;0.80;0.80;;;;;;;;;;5039973;28;20433;-69
2023/03/07 10:55:16;;;;;;;2.80;1.00;;;;;;;;;;5041303;28;21015;-69
2023/03/07 10:57:43;;;;;;;1.02;1.02;;;;;;;;;;5047884;28;20460;-70
2023/03/07 11:00:17;;;;;;;5.03;1.40;;;;;;;;;;5038940;28;20895;-69
2023/03/07 11:02:45;;;;;;;1.05;1.05;;;;;;;;;;5036666;28;20541;-68
2023/03/07 11:05:19;;;;;;;1.93;1.10;;;;;;;;;;5035885;28;21255;-69
2023/03/07 11:07:46;;;;;;;0.88;0.88;;;;;;;;;;5039416;28;20443;-70
2023/03/07 11:10:35;;;;;;;2.17;1.10;;;8.20;99.90;;;;;;5044203;28;20424;-69
2023/03/07 11:13:17;;;;;;;5.10;1.38;;;9.90;99.90;;;;;;5046991;28;20487;-69
2023/03/07 11:15:44;;;;;;;1.30;0.98;;;9.90;99.90;;;;;;5043271;28;20547;-69
2023/03/07 11:18:44;;;;;;;1.67;1.58;;;10.10;99.90;;;;;;5045578;28;20515;-68
2023/03/07 11:21:32;;;;;;;0.60;0.50;;;9.90;99.90;;;;;;5063623;28;20454;-69
2023/03/07 11:24:21;;;;;;;1.90;0.95;;;9.70;99.90;;;;;;5062171;28;20466;-67
2023/03/07 11:26:53;;;;;;;0.50;0.50;;;9.80;99.90;;;;;;5028148;28;20427;-69
2023/03/07 11:29:19;;;;;;;1.02;0.95;;;10.20;99.90;;;;;;5061314;28;20431;-68
2023/03/07 11:32:13;;;;;;;0.90;0.75;;;;;;;;;;5061846;28;20434;-69
2023/03/07 11:34:48;;;;;;;1.08;1.08;;;10.00;99.90;;;;;;5055741;28;20419;-69
2023/03/07 11:37:23;;;;;;;2.30;1.27;;;9.50;99.90;;;;;;5060715;28;20514;-69
2023/03/07 11:40:01;;;;;;;0.60;0.60;;;9.50;99.90;;;;;;5058773;28;20466;-68
2023/03/07 11:42:36;;;;;;;1.48;1.38;;;9.50;99.90;;;;;;5059438;28;20431;-69
2023/03/07 11:45:26;;;;;;;1.20;0.60;;;9.60;99.90;;;;;;5063003;28;20432;-68
2023/03/07 11:48:26;;;;;;;0.80;0.80;;;9.80;99.90;;;;;;5057560;28;20462;-69
2023/03/07 11:50:58;;;;;;;1.80;1.00;;;10.10;99.90;;;;;;5060079;28;20435;-68
2023/03/07 11:53:51;;;;;;;1.30;1.20;;;10.10;99.90;;;;;;5061209;28;20898;-69
2023/03/07 11:56:35;;;;;;;0.95;0.90;;;9.90;99.90;;;;;;5058534;28;20429;-69
2023/03/07 11:59:32;;;;;;;0.98;0.60;;;9.50;99.90;;;;;;5037926;28;20888;-68
2023/03/07 12:02:05;;;;;;;0.80;0.80;;;9.80;99.90;;;;;;5035101;28;20483;-68
2023/03/07 12:05:08;;;;;;;1.17;1.08;;;9.80;99.90;;;;;;5035135;28;20425;-69
2023/03/07 12:07:53;;;;;;;1.45;1.35;;;9.70;99.90;;;;;;5035665;28;20429;-68
2023/03/07 12:10:38;;;;;;;0.70;0.70;;;9.70;99.90;;;;;;5042456;28;21140;-68
2023/03/07 12:13:31;;;;;;;0.77;0.77;;;9.40;99.90;;;;;;5040865;28;20440;-68
2023/03/07 12:16:00;;;;;;;0.70;0.70;;;9.20;99.90;;;;;;5036290;28;20434;-68
2023/03/07 12:19:06;;;;;;;1.20;1.13;;;9.00;99.90;;;;;;5041319;28;20515;-69
2023/03/07 12:21:52;;;;;;;1.40;0.75;;;9.00;99.90;;;;;;5046344;28;20429;-69
2023/03/07 12:24:23;;;;;;;1.03;0.90;;;9.20;99.90;;;;;;5040703;28;21199;-69
2023/03/07 12:27:00;;;;;;;0.80;0.73;;;9.30;99.90;;;;;;5038628;28;20436;-69
2023/03/07 12:29:39;;;;;;;0.70;0.52;;;9.40;99.90;;;;;;5042971;28;20859;-69
2023/03/07 12:32:11;;;;;;;1.00;0.90;;;9.70;99.90;;;;;;5033659;28;20486;-69
2023/03/07 12:34:56;;;;;;;0.65;0.65;;;;;;;;;;5042315;28;20437;-68
2023/03/07 12:37:37;;;;;;;0.70;0.70;;;;;;;;;;5043462;28;20520;-69
2023/03/07 12:40:09;;;;;;;2.25;1.30;;;;;;;;;;5042478;28;20520;-69
2023/03/07 12:42:46;;;;;;;1.15;0.70;;;;;;;;;;5039610;28;20439;-69
2023/03/07 12:45:15;;;;;;;1.05;0.98;;;;;;;;;;5045320;28;20548;-69
2023/03/07 12:47:54;;;;;;;0.93;0.93;;;10.20;99.90;;;;;;5039773;28;20516;-69
2023/03/07 12:50:29;;;;;;;2.10;1.10;;;;;;;;;;5041217;28;20435;-69
2023/03/07 12:53:21;;;;;;;1.65;0.50;;;9.50;99.90;;;;;;5044496;28;20426;-69
2023/03/07 12:56:10;;;;;;;0.93;0.93;;;8.90;99.90;;;;;;5040436;28;20427;-69
2023/03/07 12:58:57;;;;;;;2.20;0.93;;;;;;;;;;5045759;28;20437;-69
2023/03/07 13:01:33;;;;;;;2.10;1.05;;;;;;;;;;5046793;28;20432;-69
2023/03/07 13:04:12;;;;;;;0.95;0.95;;;;;;;;;;5039934;28;20524;-69
2023/03/07 13:06:40;;;;;;;0.82;0.80;;;;;;;;;;5034329;28;20431;-68
2023/03/07 13:09:13;;;;;;;0.65;0.65;;;;;;;;;;5046064;28;20962;-69
2023/03/07 13:12:01;;;;;;;0.93;0.93;;;;;;;;;;5035124;28;20930;-69
2023/03/07 13:14:41;;;;;;;0.98;0.85;;;;;;;;;;5048412;28;20434;-69
2023/03/07 13:17:09;;;;;;;1.10;1.10;;;;;;;;;;5048146;28;20448;-68
2023/03/07 13:19:41;;;;;;;1.08;1.08;;;8.70;99.90;;;;;;5040093;28;20530;-68
2023/03/07 13:22:14;;;;;;;0.70;0.70;;;8.20;99.90;;;;;;5044950;28;20440;-69
2023/03/07 13:24:54;;;;;;;1.95;1.27;;;8.20;99.90;;;;;;5043320;28;20439;-69
2023/03/07 13:27:22;;;;;;;1.77;0.95;;;8.20;99.90;;;;;;5047781;28;20512;-69
2023/03/07 13:30:22;;;;;;;0.50;0.50;;;8.20;99.90;;;;;;5038974;28;20501;-68
2023/03/07 13:32:54;;;;;;;0.63;0.63;;;8.30;99.90;;;;;;5037098;28;20782;-69
2023/03/07 13:35:28;;;;;;;1.20;1.10;;;8.20;99.90;;;;;;5043571;28;20429;-69
2023/03/07 13:37:58;;;;;;;0.47;0.47;;;8.10;99.90;;;;;;5037361;28;20436;-69
2023/03/07 13:40:28;;;;;;;2.05;1.05;;;;;;;;;;5043383;28;20438;-68
2023/03/07 13:42:55;;;;;;;0.80;0.80;;;;;;;;;;5039396;28;21170;-68
2023/03/07 13:45:38;;;;;;;0.60;0.60;;;;;;;;;;5043972;28;20604;-68
2023/03/07 13:48:11;;;;;;;0.38;0.38;;;;;;;;;;5035065;28;20433;-69
2023/03/07 13:50:38;;;;;;;0.75;0.75;;;;;;;;;;5046189;28;20479;-68
2023/03/07 13:53:13;;;;;;;1.60;1.40;;;;;;;;;;5046114;28;20540;-69
2023/03/07 13:55:45;;;;;;;1.20;1.10;;;;;;;;;;5034688;28;20941;-68
2023/03/07 13:58:19;;;;;;;0.80;0.73;;;;;;;;;;5045479;28;20495;-69
2023/03/07 14:00:51;;;;;;;0.65;0.65;;;;;;;;;;5048529;28;20432;-69
2023/03/07 14:03:28;;;;;;;0.35;0.35;;;;;;;;;;5044017;28;20522;-69
2023/03/07 14:06:00;;;;;;;0.80;0.73;;;;;;;;;;5048899;28;20452;-69
2023/03/07 14:08:29;;;;;;;0.65;0.65;;;;;;;;;;5048670;28;20884;-68
2023/03/07 14:10:56;;;;;;;0.80;0.77;;;;;;;;;;5031698;28;20438;-69
2023/03/07 14:13:35;;;;;;;0.77;0.60;;;;;;;;;;5045643;28;20441;-69